Página principal
METAR-TAF:

METAR-TAF

Aeroportos :

Ilha da Boa Vista, Cabo Verde

Aeroporto Internacional Aristides Pereira

latitude: 16-08-15N, longitude: 22-53-22W, altura: 21 m

Observação actual do tempo

O boletim foi feito há 6 horas e 24 minutos, às 19:00 UTC
Vento 6 kt de nordeste
Temperatura 28°C
Humidade 66%
Pressão 1013 hPa
Visibilidade 10 km ou mais
Poucas nuvensa uma altura de 1400 ft

METAR: GVBA 191900Z 05006KT 9999 FEW014 28/21 Q1013 NOSIG

Hora: 00:24 (01:24 UTC)

Previsão

O boletim foi feito há 2 horas e 24 minutos, às 23:00 UTC
Previsão válida de 20 às 00 UTC a 21 às 06 UTC
Vento 6 kt de nordeste
Visibilidade 10 km ou mais
Poucas nuvensa uma altura de 1500 ft
Temporariamente
de 20 às 02 UTC a 20 às 06 UTC
Vento 2 kt com direcção variável
Probabilidade 30% :
Temporariamente
de 20 às 12 UTC a 20 às 18 UTC
Vento 16 kt de nordeste

TAF: GVBA 192300Z 2000/2106 05006KT 9999 FEW015 TEMPO 2002/2006 VRB02KT PROB30 TEMPO 2012/2018 05016KT

Observações e previsões do tempo de mais de 4000 aeroportos (mensagens METAR e TAF).

As estações disponíveis são os pontos amarelos e vermelhos sobre o mapa.

Mova o rato sobre o mapa para ver o nome da estação.

Depois clique no ponto para visualizar as observações e previsões meteorológicas.

Para alterar o mapa : clique nos botões verdes com uma cruz preta para aumentar o zoom; no botão verde com uma pitada de zoom; ou nas setas verdes para mapas adjacentes.


METAR-TAF: